createdAt,value
2023-05-15T00:00:45.811Z,26.30
2023-05-15T00:03:13.674Z,25.35
2023-05-15T00:05:42.976Z,26.50
2023-05-15T00:08:11.078Z,28.95
2023-05-15T00:10:41.023Z,25.98
2023-05-15T00:13:12.774Z,24.98
2023-05-15T00:15:40.610Z,24.95
2023-05-15T00:18:08.517Z,25.73
2023-05-15T00:20:36.702Z,24.75
2023-05-15T00:23:05.918Z,29.70
2023-05-15T00:25:33.716Z,26.27
2023-05-15T00:28:01.570Z,30.58
2023-05-15T00:30:29.725Z,25.35
2023-05-15T00:32:57.569Z,26.90
2023-05-15T00:35:25.644Z,27.13
2023-05-15T00:37:53.620Z,23.45
2023-05-15T00:40:25.767Z,25.73
2023-05-15T00:42:54.397Z,31.13
2023-05-15T00:45:23.556Z,27.92
2023-05-15T00:47:52.377Z,29.60
2023-05-15T00:50:21.158Z,27.23
2023-05-15T00:52:49.991Z,28.55
2023-05-15T00:55:17.981Z,25.65
2023-05-15T00:57:49.056Z,27.38
2023-05-15T01:00:18.592Z,31.00
2023-05-15T01:02:47.010Z,30.30
2023-05-15T01:05:15.049Z,31.88
2023-05-15T01:07:50.227Z,25.45
2023-05-15T01:10:20.631Z,29.77
2023-05-15T01:12:54.317Z,26.73
2023-05-15T01:15:22.302Z,30.40
2023-05-15T01:17:51.983Z,30.55
2023-05-15T01:20:21.815Z,31.25
2023-05-15T01:22:58.560Z,27.42
2023-05-15T01:26:24.250Z,29.05
2023-05-15T01:29:00.268Z,27.17
2023-05-15T01:31:32.843Z,26.60
2023-05-15T01:34:05.026Z,26.25
2023-05-15T01:36:38.866Z,28.25
2023-05-15T01:39:08.260Z,29.88
2023-05-15T01:41:44.184Z,29.02
2023-05-15T01:44:18.564Z,27.27
2023-05-15T01:46:50.764Z,27.70
2023-05-15T01:49:20.679Z,25.85
2023-05-15T01:51:54.253Z,29.48
2023-05-15T01:54:23.951Z,32.72
2023-05-15T01:56:53.564Z,30.13
2023-05-15T01:59:23.839Z,28.73
2023-05-15T02:01:52.395Z,25.88
2023-05-15T02:04:20.903Z,29.95
2023-05-15T02:06:50.448Z,29.85
2023-05-15T02:09:19.783Z,27.60
2023-05-15T02:11:48.195Z,27.80
2023-05-15T02:14:17.288Z,30.73
2023-05-15T02:16:46.589Z,31.13
2023-05-15T02:19:14.776Z,31.48
2023-05-15T02:21:42.974Z,32.65
2023-05-15T02:24:10.791Z,32.22
2023-05-15T02:26:50.627Z,34.15
2023-05-15T02:29:21.572Z,29.77
2023-05-15T02:31:58.658Z,33.28
2023-05-15T02:34:32.660Z,34.88
2023-05-15T02:37:02.287Z,31.98
2023-05-15T02:39:31.093Z,34.67
2023-05-15T02:42:00.939Z,31.77
2023-05-15T02:44:29.922Z,29.42
2023-05-15T02:47:00.724Z,29.65
2023-05-15T02:49:28.511Z,33.47
2023-05-15T02:51:56.230Z,32.95
2023-05-15T02:54:24.544Z,33.55
2023-05-15T02:56:52.385Z,31.77
2023-05-15T02:59:20.266Z,30.63
2023-05-15T03:01:48.559Z,30.70
2023-05-15T03:04:17.853Z,30.40
2023-05-15T03:06:45.677Z,34.63
2023-05-15T03:09:13.426Z,33.92
2023-05-15T03:11:41.169Z,35.38
2023-05-15T03:14:09.014Z,33.58
2023-05-15T03:16:38.866Z,34.90
2023-05-15T03:19:06.855Z,33.25
2023-05-15T03:21:36.094Z,34.17
2023-05-15T03:24:03.937Z,32.65
2023-05-15T03:26:31.802Z,34.70
2023-05-15T03:28:59.626Z,32.88
2023-05-15T03:31:27.411Z,31.25
2023-05-15T03:33:55.156Z,32.13
2023-05-15T03:36:23.259Z,30.48
2023-05-15T03:38:52.365Z,31.00
2023-05-15T03:41:20.108Z,28.58
2023-05-15T03:43:47.942Z,30.00
2023-05-15T03:46:16.123Z,29.48
2023-05-15T03:48:43.913Z,31.48
2023-05-15T03:51:11.918Z,29.55
2023-05-15T03:53:39.652Z,29.60
2023-05-15T03:56:09.164Z,30.17
2023-05-15T03:58:37.009Z,33.50
2023-05-15T04:01:04.875Z,28.52
2023-05-15T04:03:32.851Z,28.10
2023-05-15T04:06:00.918Z,30.27
2023-05-15T04:08:28.629Z,31.50
2023-05-15T04:10:56.356Z,33.50
2023-05-15T04:13:25.482Z,35.25
2023-05-15T04:15:54.026Z,36.70
2023-05-15T04:18:21.815Z,36.88
2023-05-15T04:20:49.888Z,33.70
2023-05-15T04:23:17.683Z,35.85
2023-05-15T04:25:46.846Z,33.70
2023-05-15T04:28:15.042Z,34.95
2023-05-15T04:30:44.380Z,33.47
2023-05-15T04:33:12.201Z,36.30
2023-05-15T04:35:40.466Z,32.92
2023-05-15T04:38:08.365Z,33.13
2023-05-15T04:40:36.505Z,35.03
2023-05-15T04:43:04.554Z,33.38
2023-05-15T04:45:32.521Z,30.83
2023-05-15T04:48:01.818Z,32.45
2023-05-15T04:50:29.735Z,31.02
2023-05-15T04:52:57.633Z,30.88
2023-05-15T04:55:25.517Z,31.60
2023-05-15T04:57:53.426Z,29.63
2023-05-15T05:00:21.460Z,29.80
2023-05-15T05:02:49.291Z,29.35
2023-05-15T05:05:18.538Z,27.42
2023-05-15T05:07:46.437Z,30.90
2023-05-15T05:10:14.611Z,28.13
2023-05-15T05:12:42.774Z,29.85
2023-05-15T05:15:11.740Z,26.85
2023-05-15T05:17:39.689Z,28.25
2023-05-15T05:20:12.938Z,27.58
2023-05-15T05:22:42.779Z,27.80
2023-05-15T05:25:11.050Z,27.58
2023-05-15T05:27:38.898Z,25.88
2023-05-15T05:30:08.545Z,26.83
2023-05-15T05:32:36.791Z,27.25
2023-05-15T05:35:05.042Z,26.85
2023-05-15T05:37:32.960Z,25.38
2023-05-15T05:40:02.219Z,25.40
2023-05-15T05:42:30.065Z,24.48
2023-05-15T05:44:57.843Z,26.67
2023-05-15T05:47:25.670Z,25.45
2023-05-15T05:49:55.188Z,24.30
2023-05-15T05:52:23.105Z,22.90
2023-05-15T05:54:51.184Z,25.05
2023-05-15T05:57:20.768Z,24.65
2023-05-15T05:59:49.929Z,25.75
2023-05-15T06:02:19.920Z,24.20
2023-05-15T06:04:47.939Z,24.52
2023-05-15T06:07:16.146Z,23.33
2023-05-15T06:09:46.075Z,23.20
2023-05-15T06:12:14.145Z,23.83
2023-05-15T06:14:43.602Z,21.80
2023-05-15T06:17:11.639Z,22.33
2023-05-15T06:19:39.464Z,23.23
2023-05-15T06:22:07.689Z,21.80
2023-05-15T06:24:35.746Z,21.60
2023-05-15T06:27:03.679Z,19.52
2023-05-15T06:29:31.502Z,20.90
2023-05-15T06:32:00.674Z,19.27
2023-05-15T06:34:28.452Z,19.65
2023-05-15T06:36:56.265Z,20.23
2023-05-15T06:39:24.156Z,19.52
2023-05-15T06:41:58.061Z,20.25
2023-05-15T06:44:26.005Z,21.63
2023-05-15T06:46:53.944Z,20.55
2023-05-15T06:49:23.385Z,20.75
2023-05-15T06:51:51.421Z,20.80
2023-05-15T06:54:19.512Z,22.52
2023-05-15T06:56:47.282Z,22.02
2023-05-15T06:59:15.117Z,23.40
2023-05-15T07:01:42.994Z,24.10
2023-05-15T07:04:13.270Z,24.20
2023-05-15T07:06:42.732Z,23.45
2023-05-15T07:09:10.579Z,23.67
2023-05-15T07:11:38.847Z,23.17
2023-05-15T07:14:07.677Z,22.42
2023-05-15T07:16:39.024Z,19.40
2023-05-15T07:19:06.977Z,22.08
2023-05-15T07:21:34.920Z,22.33
2023-05-15T07:24:04.314Z,21.13
2023-05-15T07:26:40.763Z,23.02
2023-05-15T07:31:45.620Z,22.65
2023-05-15T07:34:13.520Z,23.90
2023-05-15T07:36:41.506Z,22.55
2023-05-15T07:39:11.660Z,22.85
2023-05-15T07:41:39.521Z,23.92
2023-05-15T07:44:07.369Z,22.63
2023-05-15T07:46:36.362Z,21.33
2023-05-15T07:49:04.186Z,21.02
2023-05-15T07:51:31.982Z,19.50
2023-05-15T07:54:09.991Z,20.40
2023-05-15T07:56:40.540Z,20.30
2023-05-15T07:59:08.768Z,19.73
2023-05-15T08:01:36.825Z,19.08
2023-05-15T08:04:08.257Z,20.83
2023-05-15T08:06:38.338Z,19.42
2023-05-15T08:09:06.363Z,19.33
2023-05-15T08:11:34.143Z,19.60
2023-05-15T08:14:03.596Z,19.13
2023-05-15T08:16:31.740Z,18.88
2023-05-15T08:19:03.676Z,19.60
2023-05-15T08:21:35.379Z,20.08
2023-05-15T08:24:03.953Z,20.20
2023-05-15T08:26:31.856Z,20.02
2023-05-15T08:29:00.075Z,19.73
2023-05-15T08:31:29.600Z,20.60
2023-05-15T08:33:57.566Z,18.95
2023-05-15T08:36:25.579Z,18.17
2023-05-15T08:38:53.645Z,21.63
2023-05-15T08:41:39.930Z,18.30
2023-05-15T08:44:11.876Z,17.02
2023-05-15T08:46:41.497Z,16.60
2023-05-15T08:49:15.972Z,15.90
2023-05-15T08:51:44.241Z,14.82
2023-05-15T08:54:12.777Z,15.18
2023-05-15T08:56:41.167Z,15.63
2023-05-15T08:59:09.490Z,14.63
2023-05-15T09:01:38.225Z,15.35
2023-05-15T09:04:07.910Z,16.05
2023-05-15T09:06:38.914Z,15.02
2023-05-15T09:09:07.273Z,14.70
2023-05-15T09:11:38.431Z,14.68
2023-05-15T09:14:07.541Z,14.65
2023-05-15T09:16:35.754Z,14.65
2023-05-15T09:19:04.889Z,12.85
2023-05-15T09:21:37.625Z,14.98
2023-05-15T09:24:20.265Z,14.60
2023-05-15T09:27:02.134Z,13.65
2023-05-15T09:29:31.866Z,13.90
2023-05-15T09:32:04.407Z,13.95
2023-05-15T09:34:33.220Z,14.32
2023-05-15T09:37:04.879Z,13.15
2023-05-15T09:39:33.036Z,13.20
2023-05-15T09:42:11.949Z,13.38
2023-05-15T09:44:43.088Z,13.27
2023-05-15T09:47:17.909Z,12.13
2023-05-15T09:49:47.050Z,12.25
2023-05-15T09:52:17.311Z,12.60
2023-05-15T09:54:49.517Z,12.20
2023-05-15T09:57:23.560Z,12.73
2023-05-15T09:59:53.730Z,11.98
2023-05-15T10:02:24.986Z,13.25
2023-05-15T10:04:57.686Z,14.05
2023-05-15T10:07:38.125Z,15.07
2023-05-15T10:10:07.499Z,13.43
2023-05-15T10:12:37.090Z,12.43
2023-05-15T10:15:06.738Z,12.57
2023-05-15T10:17:36.994Z,11.30
2023-05-15T10:20:13.285Z,11.52
2023-05-15T10:22:46.667Z,11.30
2023-05-15T10:25:19.903Z,11.52
2023-05-15T10:27:49.143Z,12.82
2023-05-15T10:30:18.193Z,12.38
2023-05-15T10:32:46.623Z,13.40
2023-05-15T10:35:14.796Z,13.10
2023-05-15T10:37:46.732Z,12.20
2023-05-15T10:40:16.716Z,13.05
2023-05-15T10:42:47.476Z,12.82
2023-05-15T10:45:15.764Z,12.10
2023-05-15T10:47:45.299Z,11.80
2023-05-15T10:50:19.394Z,12.00
2023-05-15T10:52:52.448Z,10.98
2023-05-15T10:55:25.366Z,10.20
2023-05-15T10:57:56.583Z,10.23
2023-05-15T11:00:29.492Z,9.25
2023-05-15T11:02:59.118Z,10.27
2023-05-15T11:05:27.818Z,10.82
2023-05-15T11:08:30.021Z,9.77
2023-05-15T11:10:58.439Z,12.13
2023-05-15T11:13:28.097Z,11.30
2023-05-15T11:15:57.392Z,13.90
2023-05-15T11:18:26.857Z,13.00
2023-05-15T11:21:10.999Z,15.45
2023-05-15T11:23:43.374Z,13.20
2023-05-15T11:28:44.925Z,12.75
2023-05-15T11:31:13.436Z,12.50
2023-05-15T11:33:42.280Z,12.15
2023-05-15T11:36:11.856Z,12.55
2023-05-15T11:38:41.265Z,13.00
2023-05-15T11:41:24.028Z,13.65
2023-05-15T11:43:55.001Z,13.45
2023-05-15T11:46:25.821Z,14.25
2023-05-15T11:48:56.684Z,14.95
2023-05-15T11:51:28.941Z,14.15
2023-05-15T11:53:59.319Z,16.67
2023-05-15T11:56:29.625Z,16.60
2023-05-15T11:58:59.987Z,16.45
2023-05-15T12:01:39.921Z,15.13
2023-05-15T12:04:15.247Z,13.77
2023-05-15T12:06:44.634Z,13.98
2023-05-15T12:09:20.260Z,14.38
2023-05-15T12:11:54.655Z,13.15
2023-05-15T12:14:28.352Z,12.75
2023-05-15T12:17:02.931Z,15.02
2023-05-15T12:19:31.465Z,15.13
2023-05-15T12:22:01.373Z,14.45
2023-05-15T12:24:29.363Z,16.65
2023-05-15T12:26:59.525Z,15.07
2023-05-15T12:29:28.315Z,18.88
2023-05-15T12:31:56.712Z,21.48
2023-05-15T12:34:25.940Z,20.60
2023-05-15T12:36:54.026Z,20.05
2023-05-15T12:39:21.935Z,21.77
2023-05-15T12:41:50.029Z,19.52
2023-05-15T12:44:19.863Z,19.83
2023-05-15T12:46:49.600Z,18.23
2023-05-15T12:49:23.310Z,18.55
2023-05-15T12:51:51.402Z,19.40
2023-05-15T12:54:20.020Z,18.15
2023-05-15T12:56:48.501Z,18.48
2023-05-15T12:59:16.560Z,22.20
2023-05-15T13:01:46.405Z,22.20
2023-05-15T13:04:14.353Z,21.83
2023-05-15T13:06:46.899Z,21.13
2023-05-15T13:09:22.507Z,21.65
2023-05-15T13:11:50.897Z,22.30
2023-05-15T13:14:19.870Z,23.00
2023-05-15T13:16:49.152Z,23.83
2023-05-15T13:19:17.447Z,23.05
2023-05-15T13:21:45.747Z,21.77
2023-05-15T13:24:13.864Z,24.08
2023-05-15T13:26:41.897Z,22.80
2023-05-15T13:29:09.837Z,28.20
2023-05-15T13:31:38.281Z,21.92
2023-05-15T13:34:07.488Z,23.13
2023-05-15T13:36:35.904Z,21.85
2023-05-15T13:39:03.949Z,22.00
2023-05-15T13:41:31.759Z,19.60
2023-05-15T13:43:59.727Z,21.80
2023-05-15T13:46:27.753Z,23.15
2023-05-15T13:48:55.728Z,21.80
2023-05-15T13:51:25.020Z,20.67
2023-05-15T13:53:52.961Z,27.98
2023-05-15T13:56:22.414Z,18.90
2023-05-15T13:58:50.234Z,17.30
2023-05-15T14:01:18.235Z,19.38
2023-05-15T14:03:46.108Z,19.52
2023-05-15T14:06:13.981Z,19.15
2023-05-15T14:08:43.227Z,18.98
2023-05-15T14:11:11.064Z,19.98
2023-05-15T14:13:38.923Z,20.35
2023-05-15T14:16:09.331Z,19.05
2023-05-15T14:18:37.234Z,17.45
2023-05-15T14:21:05.189Z,17.13
2023-05-15T14:23:33.235Z,16.23
2023-05-15T14:26:02.755Z,17.17
2023-05-15T14:28:30.723Z,17.55
2023-05-15T14:30:58.585Z,16.90
2023-05-15T14:33:26.935Z,17.20
2023-05-15T14:35:54.839Z,21.88
2023-05-15T14:38:22.698Z,21.50
2023-05-15T14:40:50.530Z,21.98
2023-05-15T14:43:19.807Z,20.60
2023-05-15T14:45:47.642Z,19.58
2023-05-15T14:48:15.469Z,17.17
2023-05-15T14:50:43.313Z,17.08
2023-05-15T14:53:11.014Z,17.25
2023-05-15T14:55:39.136Z,13.60
2023-05-15T14:58:07.062Z,16.60
2023-05-15T15:00:36.809Z,16.95
2023-05-15T15:03:06.465Z,17.88
2023-05-15T15:05:34.483Z,17.48
2023-05-15T15:08:04.809Z,19.30
2023-05-15T15:10:33.483Z,19.92
2023-05-15T15:13:01.386Z,19.77
2023-05-15T15:15:33.782Z,20.65
2023-05-15T15:18:03.192Z,22.80
2023-05-15T15:20:31.199Z,23.45
2023-05-15T15:22:58.948Z,24.35
2023-05-15T15:25:27.073Z,24.55
2023-05-15T15:27:54.826Z,22.73
2023-05-15T15:30:22.516Z,22.42
2023-05-15T15:32:50.262Z,22.80
2023-05-15T15:35:20.141Z,25.35
2023-05-15T15:37:47.980Z,24.20
2023-05-15T15:40:15.896Z,23.90
2023-05-15T15:42:43.626Z,23.45
2023-05-15T15:45:11.792Z,22.45
2023-05-15T15:47:39.654Z,22.38
2023-05-15T15:50:08.129Z,21.17
2023-05-15T15:52:37.436Z,21.17
2023-05-15T15:55:05.826Z,22.48
2023-05-15T15:57:34.136Z,21.92
2023-05-15T16:00:01.971Z,23.55
2023-05-15T16:02:29.944Z,22.63
2023-05-15T16:04:57.741Z,22.50
2023-05-15T16:07:25.495Z,21.60
2023-05-15T16:10:07.796Z,22.85
2023-05-15T16:12:40.658Z,20.77
2023-05-15T16:15:21.708Z,20.73
2023-05-15T16:17:52.854Z,20.90
2023-05-15T16:20:21.788Z,19.77
2023-05-15T16:22:50.042Z,19.13
2023-05-15T16:25:19.353Z,19.90
2023-05-15T16:27:47.222Z,19.00
2023-05-15T16:30:15.871Z,21.48
2023-05-15T16:32:43.680Z,21.77
2023-05-15T16:35:11.493Z,22.23
2023-05-15T16:37:39.286Z,20.30
2023-05-15T16:40:08.501Z,19.60
2023-05-15T16:42:38.851Z,19.23
2023-05-15T16:45:08.349Z,18.20
2023-05-15T16:47:38.244Z,19.67
2023-05-15T16:50:07.419Z,21.05
2023-05-15T16:52:35.891Z,20.83
2023-05-15T16:55:04.344Z,22.10
2023-05-15T16:57:32.292Z,23.55
2023-05-15T17:00:01.676Z,22.30
2023-05-15T17:02:29.568Z,17.02
2023-05-15T17:04:57.331Z,18.15
2023-05-15T17:07:25.086Z,20.90
2023-05-15T17:09:55.814Z,21.60
2023-05-15T17:12:24.467Z,21.30
2023-05-15T17:14:52.279Z,22.50
2023-05-15T17:17:23.319Z,25.45
2023-05-15T17:19:51.298Z,24.08
2023-05-15T17:22:19.159Z,24.33
2023-05-15T17:24:51.412Z,20.92
2023-05-15T17:27:20.486Z,24.45
2023-05-15T17:29:48.719Z,20.85
2023-05-15T17:32:17.257Z,23.45
2023-05-15T17:34:46.743Z,18.85
2023-05-15T17:37:15.216Z,23.92
2023-05-15T17:39:43.076Z,21.30
2023-05-15T17:42:10.894Z,22.92
2023-05-15T17:44:38.798Z,21.30
2023-05-15T17:47:06.583Z,21.88
2023-05-15T17:49:34.547Z,22.55
2023-05-15T17:52:03.669Z,21.15
2023-05-15T17:54:31.483Z,20.10
2023-05-15T17:56:59.505Z,22.65
2023-05-15T17:59:27.567Z,21.70
2023-05-15T18:01:55.430Z,24.25
2023-05-15T18:04:23.529Z,19.67
2023-05-15T18:06:52.297Z,18.75
2023-05-15T18:09:30.718Z,18.52
2023-05-15T18:11:58.697Z,17.85
2023-05-15T18:14:26.665Z,17.30
2023-05-15T18:16:57.488Z,19.58
2023-05-15T18:19:25.432Z,15.68
2023-05-15T18:21:53.284Z,17.83
2023-05-15T18:24:22.512Z,18.75
2023-05-15T18:26:50.288Z,16.95
2023-05-15T18:29:18.052Z,16.05
2023-05-15T18:31:45.998Z,16.98
2023-05-15T18:34:14.046Z,14.38
2023-05-15T18:36:41.917Z,15.90
2023-05-15T18:39:09.700Z,17.90
2023-05-15T18:41:38.947Z,14.45
2023-05-15T18:44:06.711Z,16.60
2023-05-15T18:46:40.287Z,16.52
2023-05-15T18:49:08.386Z,15.85
2023-05-15T18:51:36.856Z,14.35
2023-05-15T18:54:04.945Z,15.95
2023-05-15T18:56:32.744Z,13.55
2023-05-15T18:59:01.890Z,13.48
2023-05-15T19:01:29.629Z,13.02
2023-05-15T19:03:57.792Z,14.00
2023-05-15T19:06:25.516Z,12.90
2023-05-15T19:08:53.286Z,13.60
2023-05-15T19:11:21.313Z,11.65
2023-05-15T19:13:57.083Z,13.75
2023-05-15T19:16:28.713Z,12.35
2023-05-15T19:18:56.892Z,12.27
2023-05-15T19:21:24.672Z,12.00
2023-05-15T19:23:52.406Z,12.32
2023-05-15T19:26:21.621Z,12.18
2023-05-15T19:28:49.789Z,11.85
2023-05-15T19:31:30.786Z,10.55
2023-05-15T19:34:01.508Z,10.68
2023-05-15T19:36:29.343Z,9.32
2023-05-15T19:38:57.644Z,9.38
2023-05-15T19:41:25.496Z,9.82
2023-05-15T19:43:58.799Z,9.25
2023-05-15T19:46:29.117Z,10.15
2023-05-15T19:48:56.947Z,10.23
2023-05-15T19:51:26.200Z,8.60
2023-05-15T19:53:56.665Z,8.63
2023-05-15T19:56:25.258Z,8.88
2023-05-15T19:58:53.164Z,8.52
2023-05-15T20:01:22.901Z,8.10
2023-05-15T20:03:51.012Z,8.02
2023-05-15T20:06:19.121Z,8.80
2023-05-15T20:08:57.131Z,8.80
2023-05-15T20:11:27.983Z,9.40
2023-05-15T20:13:55.941Z,7.97
2023-05-15T20:16:25.782Z,8.40
2023-05-15T20:18:55.061Z,8.00
2023-05-15T20:21:22.921Z,8.70
2023-05-15T20:23:52.103Z,8.02
2023-05-15T20:26:27.403Z,8.02
2023-05-15T20:28:55.469Z,7.30
2023-05-15T20:31:23.839Z,7.57
2023-05-15T20:33:51.604Z,7.90
2023-05-15T20:36:22.221Z,7.88
2023-05-15T20:38:52.329Z,8.45
2023-05-15T20:41:23.168Z,7.68
2023-05-15T20:43:51.420Z,7.22
2023-05-15T20:46:19.615Z,7.75
2023-05-15T20:48:49.558Z,7.10
2023-05-15T20:51:17.626Z,7.30
2023-05-15T20:53:45.737Z,7.00
2023-05-15T20:56:13.725Z,7.10
2023-05-15T20:58:43.335Z,7.00
2023-05-15T21:01:11.434Z,7.75
2023-05-15T21:03:39.445Z,7.55
2023-05-15T21:06:07.944Z,7.95
2023-05-15T21:08:38.789Z,7.30
2023-05-15T21:11:07.609Z,7.43
2023-05-15T21:13:35.752Z,7.53
2023-05-15T21:16:06.482Z,8.07
2023-05-15T21:18:34.589Z,8.63
2023-05-15T21:21:03.160Z,8.88
2023-05-15T21:23:30.947Z,8.50
2023-05-15T21:26:05.696Z,8.65
2023-05-15T21:28:40.942Z,8.35
2023-05-15T21:31:10.473Z,7.95
2023-05-15T21:33:38.931Z,8.80
2023-05-15T21:36:07.137Z,7.00
2023-05-15T21:38:34.880Z,6.80
2023-05-15T21:41:03.245Z,6.88
2023-05-15T21:43:31.168Z,6.75
2023-05-15T21:45:59.008Z,6.20
2023-05-15T21:48:28.113Z,6.13
2023-05-15T21:50:56.417Z,5.82
2023-05-15T21:53:25.361Z,6.57
2023-05-15T21:55:59.949Z,6.70
2023-05-15T21:58:30.116Z,5.65
2023-05-15T22:00:57.938Z,5.95
2023-05-15T22:03:25.970Z,6.25
2023-05-15T22:05:55.608Z,6.80
2023-05-15T22:08:23.817Z,7.15
2023-05-15T22:11:21.507Z,6.72
2023-05-15T22:14:12.767Z,5.25
2023-05-15T22:16:48.209Z,6.25
2023-05-15T22:21:59.684Z,6.55
2023-05-15T22:27:24.266Z,9.70
2023-05-15T22:30:08.280Z,7.88
2023-05-15T22:32:44.670Z,8.18
2023-05-15T22:35:39.646Z,9.65
2023-05-15T22:38:15.545Z,9.45
2023-05-15T22:41:05.198Z,10.88
2023-05-15T22:43:39.666Z,11.55
2023-05-15T22:46:07.560Z,12.50
2023-05-15T22:48:37.009Z,14.55
2023-05-15T22:51:05.149Z,16.90
2023-05-15T22:53:34.675Z,13.73
2023-05-15T22:56:02.469Z,15.07
2023-05-15T22:58:30.348Z,12.60
2023-05-15T23:00:58.312Z,14.85
2023-05-15T23:03:26.261Z,12.68
2023-05-15T23:05:54.472Z,12.15
2023-05-15T23:08:22.651Z,11.63
2023-05-15T23:10:53.213Z,9.65
2023-05-15T23:13:20.989Z,11.30
2023-05-15T23:15:49.154Z,10.13
2023-05-15T23:18:17.406Z,8.50
2023-05-15T23:20:45.825Z,8.98
2023-05-15T23:23:13.580Z,8.40
2023-05-15T23:25:41.322Z,7.20
2023-05-15T23:28:10.427Z,7.70
2023-05-15T23:30:38.372Z,6.75
2023-05-15T23:33:06.298Z,8.23
2023-05-15T23:35:34.247Z,6.90
2023-05-15T23:38:02.048Z,6.97
2023-05-15T23:40:31.439Z,6.60
2023-05-15T23:42:59.278Z,6.40
2023-05-15T23:45:28.477Z,5.70
2023-05-15T23:47:56.365Z,4.53
2023-05-15T23:50:24.384Z,3.58
2023-05-15T23:52:52.318Z,3.10
2023-05-15T23:55:20.348Z,2.97
2023-05-15T23:57:48.361Z,2.85
